Rolla, Kansas
Current Conditions -  °F | °C
As of 5:53 AM on Monday 20 Oct 2014 (Local Time) from KGUY Reporting Station
Clear Clear  
Wind Chill: 46°   Ceiling: Unl
Heat Index: 49°   Visibility: 10mi
Dew Point: 46°   Wind: 7mph
Humidity: 90%   Direction: 280°W
Pressure: 30.08"   Gusts: NA
Location:  37.12°N, 101.63°W
Report Text: KGUY 201053Z AUTO 28006KT 10SM CLR 09/08 A3008 RMK AO2 SLP154 T00940078
Loading
Personal Weather Stations






























Interactive Weather Map
Tropical Storm Tracking
New forecast layout! Learn more

10-Day Weather Forecast

Advertisements
Track Severe Weather on mobile